createdAt,value
2022-10-13T00:10:08.720Z,9.80
2022-10-13T00:15:09.425Z,9.80
2022-10-13T00:20:07.766Z,9.70
2022-10-13T00:22:38.579Z,9.70
2022-10-13T00:25:07.858Z,9.70
2022-10-13T00:27:37.301Z,9.70
2022-10-13T00:37:35.899Z,9.60
2022-10-13T00:45:09.475Z,9.40
2022-10-13T00:47:41.879Z,9.30
2022-10-13T00:50:14.866Z,9.30
2022-10-13T00:55:21.443Z,9.20
2022-10-13T01:07:55.741Z,9.30
2022-10-13T01:13:08.022Z,9.30
2022-10-13T01:15:43.288Z,9.30
2022-10-13T01:18:23.595Z,9.30
2022-10-13T01:21:07.663Z,9.40
2022-10-13T01:24:10.734Z,9.40
2022-10-13T01:27:20.971Z,9.80
2022-10-13T01:30:11.281Z,9.40
2022-10-13T01:33:13.664Z,9.40
2022-10-13T01:36:05.332Z,9.50
2022-10-13T01:38:41.678Z,9.50
2022-10-13T01:41:16.584Z,9.40
2022-10-13T01:43:49.125Z,9.40
2022-10-13T01:46:25.184Z,9.40
2022-10-13T01:48:57.184Z,9.40
2022-10-13T01:58:59.149Z,9.30
2022-10-13T02:01:49.582Z,9.30
2022-10-13T02:04:31.748Z,9.20
2022-10-13T02:07:05.718Z,9.20
2022-10-13T02:09:45.105Z,9.20
2022-10-13T02:12:20.671Z,9.10
2022-10-13T02:14:51.823Z,9.10
2022-10-13T02:22:21.911Z,9.00
2022-10-13T02:32:24.752Z,8.80
2022-10-13T02:39:55.218Z,8.80
2022-10-13T02:44:52.877Z,8.80
2022-10-13T02:54:55.447Z,8.80
2022-10-13T03:09:50.630Z,8.90
2022-10-13T03:32:13.554Z,8.90
2022-10-13T03:34:42.400Z,8.80
2022-10-13T04:02:06.199Z,8.50
2022-10-13T04:04:35.447Z,8.40
2022-10-13T04:27:05.507Z,8.60
2022-10-13T04:32:07.780Z,8.70
2022-10-13T04:55:50.234Z,8.90
2022-10-13T05:12:19.122Z,9.10
2022-10-13T05:52:57.441Z,9.80
2022-10-13T06:01:08.241Z,9.90
2022-10-13T06:03:37.875Z,9.90
2022-10-13T06:27:57.262Z,9.90
2022-10-13T06:31:10.643Z,9.90
2022-10-13T06:54:44.672Z,10.50
2022-10-13T07:39:22.467Z,11.30
2022-10-13T07:56:04.681Z,11.80
2022-10-13T08:25:07.511Z,12.20
2022-10-13T08:27:50.538Z,12.20
2022-10-13T08:37:52.340Z,12.40
2022-10-13T08:40:23.121Z,12.50
2022-10-13T08:45:47.433Z,12.60
2022-10-13T08:48:19.877Z,12.60
2022-10-13T08:50:51.935Z,12.60
2022-10-13T08:53:27.537Z,12.70
2022-10-13T08:55:59.399Z,12.70
2022-10-13T08:58:30.275Z,12.70
2022-10-13T09:01:11.217Z,12.80
2022-10-13T09:03:48.835Z,12.90
2022-10-13T09:06:22.182Z,12.90
2022-10-13T09:08:55.321Z,13.20
2022-10-13T09:13:57.037Z,13.10
2022-10-13T09:16:32.935Z,13.10
2022-10-13T09:19:24.146Z,13.00
2022-10-13T09:21:54.566Z,13.10
2022-10-13T09:24:25.610Z,13.10
2022-10-13T09:27:06.815Z,13.20
2022-10-13T09:29:37.845Z,13.20
2022-10-13T09:32:17.167Z,13.40
2022-10-13T09:37:22.768Z,13.50
2022-10-13T09:40:04.273Z,13.70
2022-10-13T09:42:33.649Z,13.80
2022-10-13T09:45:12.063Z,14.00
2022-10-13T09:50:19.304Z,14.20
2022-10-13T09:52:48.823Z,14.30
2022-10-13T09:55:33.014Z,14.20
2022-10-13T09:58:07.724Z,14.20
2022-10-13T10:00:38.082Z,14.30
2022-10-13T10:09:38.568Z,14.40
2022-10-13T10:12:09.157Z,14.40
2022-10-13T10:14:39.849Z,14.50
2022-10-13T10:17:30.489Z,14.50
2022-10-13T10:20:26.267Z,14.50
2022-10-13T10:23:06.874Z,14.60
2022-10-13T10:25:42.590Z,14.70
2022-10-13T10:28:33.900Z,14.60
2022-10-13T10:31:12.958Z,14.40
2022-10-13T10:33:49.938Z,14.60
2022-10-13T10:36:26.244Z,14.70
2022-10-13T10:39:02.647Z,14.60
2022-10-13T10:41:51.126Z,14.70
2022-10-13T10:44:23.429Z,14.60
2022-10-13T10:46:53.648Z,14.50
2022-10-13T10:49:51.978Z,14.60
2022-10-13T10:52:25.767Z,14.50
2022-10-13T10:55:01.649Z,14.40
2022-10-13T10:57:36.534Z,14.50
2022-10-13T11:00:08.560Z,14.50
2022-10-13T11:03:00.045Z,14.60
2022-10-13T11:06:00.826Z,14.70
2022-10-13T11:11:44.209Z,14.90
2022-10-13T11:14:33.819Z,15.20
2022-10-13T11:17:21.915Z,15.20
2022-10-13T11:22:32.968Z,15.40
2022-10-13T11:25:04.006Z,15.40
2022-10-13T11:27:48.285Z,15.30
2022-10-13T11:30:56.517Z,15.50
2022-10-13T11:33:37.106Z,15.80
2022-10-13T11:36:31.334Z,15.80
2022-10-13T11:39:11.923Z,16.00
2022-10-13T11:41:49.326Z,16.00
2022-10-13T11:44:29.328Z,16.20
2022-10-13T11:47:09.227Z,15.90
2022-10-13T11:50:02.087Z,16.10
2022-10-13T11:52:55.350Z,16.00
2022-10-13T11:55:32.557Z,16.10
2022-10-13T11:58:11.269Z,16.40
2022-10-13T12:01:12.203Z,16.30
2022-10-13T12:03:42.079Z,16.30
2022-10-13T12:06:33.143Z,16.30
2022-10-13T12:09:04.387Z,17.60
2022-10-13T12:11:34.855Z,16.00
2022-10-13T12:14:03.861Z,16.10
2022-10-13T12:16:33.375Z,16.20
2022-10-13T12:19:19.215Z,16.10
2022-10-13T12:21:52.154Z,16.60
2022-10-13T12:24:23.577Z,16.30
2022-10-13T12:29:23.547Z,16.00
2022-10-13T12:31:54.091Z,16.00
2022-10-13T12:34:25.525Z,16.10
2022-10-13T12:37:00.154Z,16.20
2022-10-13T12:39:31.106Z,16.30
2022-10-13T12:42:00.774Z,16.20
2022-10-13T12:44:31.335Z,16.20
2022-10-13T12:47:04.025Z,16.10
2022-10-13T12:49:33.726Z,16.10
2022-10-13T12:52:07.329Z,16.10
2022-10-13T12:54:38.434Z,16.10
2022-10-13T12:57:16.418Z,16.00
2022-10-13T12:59:45.128Z,16.20
2022-10-13T13:02:23.201Z,16.10
2022-10-13T13:04:51.496Z,16.00
2022-10-13T13:07:31.006Z,15.90
2022-10-13T13:10:11.840Z,16.30
2022-10-13T13:12:43.592Z,16.20
2022-10-13T13:15:32.955Z,16.30
2022-10-13T15:45:12.529Z,16.20
2022-10-13T18:11:07.135Z,14.20
2022-10-13T18:17:24.624Z,14.10
2022-10-13T18:28:40.686Z,13.90
2022-10-13T18:31:13.037Z,13.90
2022-10-13T18:33:53.964Z,13.90
2022-10-13T18:36:37.308Z,13.80
2022-10-13T18:39:13.600Z,13.80
2022-10-13T18:42:37.758Z,13.70
2022-10-13T18:51:53.109Z,13.60
2022-10-13T22:11:40.938Z,12.60
2022-10-13T22:16:45.682Z,12.50
2022-10-13T22:21:52.889Z,12.50
2022-10-13T22:24:37.644Z,12.50
